createdAt,value
2022-08-05T00:01:27.678Z,11.85
2022-08-05T00:03:56.977Z,10.18
2022-08-05T00:06:32.288Z,10.60
2022-08-05T00:09:00.921Z,16.25
2022-08-05T00:11:34.622Z,13.48
2022-08-05T00:14:12.062Z,8.77
2022-08-05T00:16:52.448Z,14.20
2022-08-05T00:19:21.536Z,15.98
2022-08-05T00:21:49.694Z,15.75
2022-08-05T00:24:24.301Z,15.70
2022-08-05T00:26:52.996Z,16.20
2022-08-05T00:29:25.532Z,15.45
2022-08-05T00:32:13.246Z,14.70
2022-08-05T00:34:55.465Z,19.17
2022-08-05T00:37:35.762Z,15.48
2022-08-05T00:40:17.856Z,25.42
2022-08-05T00:42:55.250Z,16.70
2022-08-05T00:45:28.315Z,18.80
2022-08-05T00:48:08.317Z,17.02
2022-08-05T00:50:36.791Z,21.13
2022-08-05T00:53:09.788Z,19.70
2022-08-05T00:55:51.044Z,17.63
2022-08-05T00:58:19.149Z,21.88
2022-08-05T01:00:47.294Z,15.23
2022-08-05T01:03:22.856Z,18.45
2022-08-05T01:05:51.276Z,22.20
2022-08-05T01:08:40.930Z,17.02
2022-08-05T01:11:36.730Z,19.23
2022-08-05T01:14:27.915Z,19.95
2022-08-05T01:17:05.470Z,26.45
2022-08-05T01:20:04.351Z,22.13
2022-08-05T01:22:57.402Z,26.00
2022-08-05T01:25:39.686Z,28.45
2022-08-05T01:28:16.742Z,26.38
2022-08-05T01:31:12.103Z,28.52
2022-08-05T01:33:55.481Z,27.95
2022-08-05T01:36:28.242Z,34.17
2022-08-05T01:38:57.009Z,26.40
2022-08-05T01:41:32.526Z,32.53
2022-08-05T01:44:00.777Z,32.40
2022-08-05T01:46:41.967Z,26.73
2022-08-05T01:49:22.827Z,39.00
2022-08-05T01:51:56.443Z,34.03
2022-08-05T01:54:29.760Z,38.38
2022-08-05T01:59:47.055Z,30.30
2022-08-05T02:02:16.023Z,31.90
2022-08-05T02:04:49.720Z,43.58
2022-08-05T02:07:22.401Z,37.33
2022-08-05T02:09:53.736Z,32.88
2022-08-05T02:12:43.199Z,39.92
2022-08-05T02:15:17.344Z,33.65
2022-08-05T02:18:31.820Z,39.47
2022-08-05T02:21:15.161Z,31.27
2022-08-05T02:26:11.734Z,33.60
2022-08-05T02:28:46.007Z,27.55
2022-08-05T02:31:21.072Z,27.42
2022-08-05T02:33:57.279Z,31.48
2022-08-05T02:36:27.492Z,28.80
2022-08-05T02:38:59.443Z,32.13
2022-08-05T02:41:29.010Z,31.02
2022-08-05T02:44:13.126Z,30.45
2022-08-05T02:46:58.554Z,29.95
2022-08-05T02:49:36.813Z,27.35
2022-08-05T02:52:07.946Z,30.13
2022-08-05T02:54:37.658Z,28.27
2022-08-05T02:58:09.248Z,36.33
2022-08-05T02:59:59.492Z,31.02
2022-08-05T03:02:33.739Z,26.65
2022-08-05T03:05:01.859Z,33.28
2022-08-05T03:08:01.897Z,26.95
2022-08-05T03:10:24.418Z,31.27
2022-08-05T03:12:53.576Z,32.33
2022-08-05T03:15:23.992Z,32.25
2022-08-05T03:17:55.844Z,32.83
2022-08-05T03:20:24.333Z,33.05
2022-08-05T03:22:52.346Z,37.22
2022-08-05T03:25:34.094Z,30.17
2022-08-05T03:28:10.512Z,29.75
2022-08-05T03:30:41.070Z,28.35
2022-08-05T03:33:09.507Z,29.00
2022-08-05T03:35:41.752Z,31.48
2022-08-05T03:38:11.639Z,37.35
2022-08-05T03:40:48.482Z,36.35
2022-08-05T03:44:09.365Z,31.25
2022-08-05T03:46:04.434Z,28.92
2022-08-05T03:48:35.683Z,29.45
2022-08-05T03:52:48.981Z,27.42
2022-08-05T03:55:51.303Z,31.73
2022-08-05T03:56:59.921Z,33.63
2022-08-05T03:59:54.313Z,29.33
2022-08-05T04:02:39.152Z,33.95
2022-08-05T04:05:13.280Z,30.70
2022-08-05T04:07:57.584Z,27.33
2022-08-05T04:10:27.947Z,30.15
2022-08-05T04:12:58.783Z,30.15
2022-08-05T04:15:27.968Z,30.23
2022-08-05T04:18:06.816Z,28.63
2022-08-05T04:20:34.419Z,31.77
2022-08-05T04:23:01.668Z,25.00
2022-08-05T04:25:57.956Z,27.63
2022-08-05T04:28:15.152Z,27.27
2022-08-05T04:30:44.147Z,29.60
2022-08-05T04:33:10.900Z,32.50
2022-08-05T04:36:15.912Z,26.30
2022-08-05T04:38:39.245Z,21.80
2022-08-05T04:43:36.299Z,21.77
2022-08-05T04:46:04.584Z,20.38
2022-08-05T04:48:32.220Z,19.92
2022-08-05T04:51:03.795Z,21.60
2022-08-05T04:53:38.596Z,18.23
2022-08-05T04:56:32.765Z,18.65
2022-08-05T04:58:54.626Z,25.10
2022-08-05T05:02:05.445Z,22.85
2022-08-05T05:04:08.048Z,23.92
2022-08-05T05:06:44.553Z,14.68
2022-08-05T05:09:14.121Z,17.30
2022-08-05T05:11:55.597Z,18.75
2022-08-05T05:14:27.744Z,20.13
2022-08-05T05:16:59.986Z,20.98
2022-08-05T05:19:27.339Z,15.32
2022-08-05T05:22:03.597Z,16.60
2022-08-05T05:24:57.510Z,17.17
2022-08-05T05:27:44.587Z,18.55
2022-08-05T05:30:29.852Z,16.15
2022-08-05T05:33:08.988Z,17.38
2022-08-05T05:35:46.943Z,18.55
2022-08-05T05:38:22.560Z,15.02
2022-08-05T05:40:55.755Z,13.85
2022-08-05T05:43:54.420Z,11.55
2022-08-05T05:46:15.753Z,15.60
2022-08-05T05:48:44.007Z,19.17
2022-08-05T05:51:15.226Z,14.07
2022-08-05T05:53:45.956Z,24.35
2022-08-05T05:56:31.504Z,18.48
2022-08-05T05:59:05.060Z,20.00
2022-08-05T06:01:37.617Z,12.65
2022-08-05T06:04:12.123Z,15.52
2022-08-05T06:06:47.578Z,11.98
2022-08-05T06:09:17.440Z,11.52
2022-08-05T06:12:01.336Z,15.57
2022-08-05T06:14:30.748Z,18.08
2022-08-05T06:16:57.934Z,11.10
2022-08-05T06:19:33.876Z,14.93
2022-08-05T06:22:03.195Z,16.17
2022-08-05T06:24:30.246Z,16.05
2022-08-05T06:26:58.322Z,11.02
2022-08-05T06:29:51.989Z,11.70
2022-08-05T06:32:25.214Z,12.07
2022-08-05T06:34:56.571Z,13.73
2022-08-05T06:37:57.977Z,12.95
2022-08-05T06:40:18.143Z,13.50
2022-08-05T06:42:52.720Z,12.82
2022-08-05T06:45:44.822Z,11.70
2022-08-05T06:48:37.133Z,11.13
2022-08-05T06:50:55.091Z,18.70
2022-08-05T06:53:27.690Z,17.13
2022-08-05T06:55:57.090Z,14.50
2022-08-05T06:58:35.237Z,14.30
2022-08-05T07:01:05.821Z,12.32
2022-08-05T07:03:33.508Z,16.38
2022-08-05T07:06:06.212Z,19.20
2022-08-05T07:08:43.050Z,13.87
2022-08-05T07:11:15.929Z,16.58
2022-08-05T07:14:01.863Z,22.40
2022-08-05T07:17:56.658Z,16.10
2022-08-05T07:22:28.943Z,21.08
2022-08-05T07:25:23.514Z,17.10
2022-08-05T07:27:58.179Z,16.23
2022-08-05T07:30:34.633Z,19.85
2022-08-05T07:33:09.635Z,15.57
2022-08-05T07:36:01.877Z,17.05
2022-08-05T07:38:34.099Z,15.65
2022-08-05T07:42:09.547Z,16.58
2022-08-05T07:43:58.567Z,14.73
2022-08-05T07:46:30.777Z,12.23
2022-08-05T07:49:02.409Z,17.38
2022-08-05T07:51:48.645Z,14.98
2022-08-05T07:54:30.210Z,14.82
2022-08-05T07:57:01.894Z,9.10
2022-08-05T07:59:42.326Z,7.75
2022-08-05T08:02:16.758Z,8.40
2022-08-05T08:04:49.265Z,9.00
2022-08-05T08:07:18.242Z,8.68
2022-08-05T08:09:49.845Z,10.10
2022-08-05T08:12:37.448Z,7.47
2022-08-05T08:15:15.636Z,11.98
2022-08-05T08:17:50.600Z,12.77
2022-08-05T08:21:00.345Z,10.43
2022-08-05T08:24:03.642Z,10.55
2022-08-05T08:26:02.759Z,14.85
2022-08-05T08:28:36.155Z,14.07
2022-08-05T08:31:06.928Z,11.23
2022-08-05T08:33:36.093Z,12.48
2022-08-05T08:38:57.098Z,18.50
2022-08-05T08:41:52.244Z,13.32
2022-08-05T08:45:18.522Z,24.85
2022-08-05T08:47:21.769Z,12.55
2022-08-05T08:50:08.873Z,14.90
2022-08-05T08:52:51.866Z,15.77
2022-08-05T08:56:01.877Z,19.33
2022-08-05T08:58:08.685Z,13.70
2022-08-05T09:00:35.898Z,14.45
2022-08-05T09:03:06.492Z,14.82
2022-08-05T09:05:38.232Z,18.10
2022-08-05T09:08:06.164Z,16.85
2022-08-05T09:10:36.540Z,13.60
2022-08-05T09:13:07.281Z,16.88
2022-08-05T09:15:37.190Z,12.90
2022-08-05T09:18:08.862Z,11.40
2022-08-05T09:20:38.104Z,11.40
2022-08-05T09:23:19.191Z,11.82
2022-08-05T09:28:33.556Z,10.52
2022-08-05T09:31:22.682Z,8.57
2022-08-05T09:34:03.224Z,9.80
2022-08-05T09:36:54.608Z,9.50
2022-08-05T09:39:27.855Z,15.43
2022-08-05T09:42:08.808Z,13.40
2022-08-05T09:44:50.411Z,18.40
2022-08-05T09:47:26.003Z,18.92
2022-08-05T09:50:01.011Z,16.13
2022-08-05T09:52:36.272Z,18.70
2022-08-05T09:55:56.370Z,13.55
2022-08-05T09:58:00.647Z,17.90
2022-08-05T10:00:30.644Z,15.32
2022-08-05T10:02:58.491Z,17.45
2022-08-05T10:05:28.635Z,13.75
2022-08-05T10:08:34.770Z,14.05
2022-08-05T10:10:44.583Z,14.20
2022-08-05T10:13:12.523Z,14.40
2022-08-05T10:15:42.026Z,14.27
2022-08-05T10:18:16.787Z,13.82
2022-08-05T10:20:49.991Z,12.50
2022-08-05T10:23:34.706Z,16.88
2022-08-05T10:26:14.031Z,13.63
2022-08-05T10:28:44.076Z,14.43
2022-08-05T10:32:52.806Z,10.43
2022-08-05T10:34:00.629Z,8.20
2022-08-05T10:36:27.575Z,9.40
2022-08-05T10:39:10.543Z,14.00
2022-08-05T10:41:49.375Z,8.20
2022-08-05T10:44:20.162Z,12.05
2022-08-05T10:46:51.153Z,7.85
2022-08-05T10:49:26.570Z,12.82
2022-08-05T10:52:00.211Z,9.27
2022-08-05T10:55:04.558Z,7.97
2022-08-05T10:57:34.021Z,8.80
2022-08-05T11:00:18.619Z,9.27
2022-08-05T11:03:23.483Z,9.02
2022-08-05T11:06:08.629Z,4.53
2022-08-05T11:09:10.539Z,8.85
2022-08-05T11:11:52.195Z,7.43
2022-08-05T11:14:57.778Z,7.88
2022-08-05T11:17:57.031Z,7.03
2022-08-05T11:20:44.321Z,10.77
2022-08-05T11:23:33.158Z,6.88
2022-08-05T11:26:11.804Z,5.68
2022-08-05T11:28:42.998Z,9.10
2022-08-05T11:33:52.211Z,4.88
2022-08-05T11:36:34.316Z,3.33
2022-08-05T11:39:08.945Z,3.25
2022-08-05T11:42:01.020Z,4.38
2022-08-05T11:44:40.650Z,3.42
2022-08-05T11:47:22.093Z,5.07
2022-08-05T11:50:08.673Z,6.05
2022-08-05T11:52:35.556Z,5.55
2022-08-05T11:55:07.527Z,4.80
2022-08-05T11:57:39.275Z,5.93
2022-08-05T12:00:30.196Z,4.53
2022-08-05T12:02:57.551Z,3.80
2022-08-05T12:05:36.317Z,5.50
2022-08-05T12:08:10.192Z,4.30
2022-08-05T12:10:45.352Z,8.60
2022-08-05T12:13:27.687Z,5.45
2022-08-05T12:16:14.158Z,4.53
2022-08-05T12:18:42.622Z,2.75
2022-08-05T12:21:30.319Z,10.15
2022-08-05T12:24:04.459Z,3.83
2022-08-05T12:26:36.335Z,4.38
2022-08-05T12:29:09.468Z,11.55
2022-08-05T12:31:45.891Z,3.58
2022-08-05T12:34:21.323Z,3.45
2022-08-05T12:36:53.999Z,5.43
2022-08-05T12:39:23.745Z,4.90
2022-08-05T12:42:02.073Z,5.38
2022-08-05T12:44:34.122Z,4.72
2022-08-05T12:47:02.209Z,3.35
2022-08-05T12:50:04.494Z,3.90
2022-08-05T12:52:32.392Z,6.63
2022-08-05T12:55:17.937Z,5.05
2022-08-05T12:58:50.507Z,4.70
2022-08-05T13:02:03.683Z,3.67
2022-08-05T13:03:32.590Z,5.22
2022-08-05T13:06:06.492Z,3.10
2022-08-05T13:08:33.489Z,3.88
2022-08-05T13:11:02.095Z,5.45
2022-08-05T13:14:04.841Z,3.42
2022-08-05T13:16:17.307Z,6.30
2022-08-05T13:18:55.256Z,4.28
2022-08-05T13:21:28.465Z,4.05
2022-08-05T13:24:06.249Z,6.10
2022-08-05T13:26:35.713Z,4.78
2022-08-05T13:29:02.395Z,2.65
2022-08-05T13:31:33.992Z,4.45
2022-08-05T13:34:22.320Z,2.75
2022-08-05T13:36:55.097Z,3.67
2022-08-05T13:40:13.987Z,2.38
2022-08-05T13:42:14.318Z,2.35
2022-08-05T13:44:45.442Z,3.83
2022-08-05T13:47:35.825Z,5.45
2022-08-05T13:50:04.236Z,2.63
2022-08-05T13:52:32.303Z,4.05
2022-08-05T13:55:02.870Z,6.80
2022-08-05T13:57:51.011Z,3.92
2022-08-05T14:00:26.757Z,3.35
2022-08-05T14:02:56.314Z,4.90
2022-08-05T14:05:48.107Z,2.95
2022-08-05T14:08:19.884Z,3.30
2022-08-05T14:10:48.720Z,3.22
2022-08-05T14:13:16.124Z,5.45
2022-08-05T14:16:04.742Z,3.33
2022-08-05T14:18:29.711Z,4.50
2022-08-05T14:20:56.481Z,3.83
2022-08-05T14:23:25.414Z,3.95
2022-08-05T14:25:58.805Z,2.10
2022-08-05T14:28:30.428Z,3.85
2022-08-05T14:31:00.427Z,4.00
2022-08-05T14:33:27.825Z,5.25
2022-08-05T14:36:14.710Z,6.75
2022-08-05T14:38:41.922Z,11.32
2022-08-05T14:41:08.692Z,1.80
2022-08-05T14:44:02.529Z,2.85
2022-08-05T14:46:28.488Z,4.25
2022-08-05T14:48:58.143Z,5.25
2022-08-05T14:51:28.316Z,2.65
2022-08-05T14:54:27.046Z,2.08
2022-08-05T14:56:46.847Z,2.42
2022-08-05T14:59:14.676Z,3.80
2022-08-05T15:01:48.646Z,3.90
2022-08-05T15:04:17.497Z,4.40
2022-08-05T15:06:49.323Z,3.20
2022-08-05T15:09:52.588Z,1.95
2022-08-05T15:12:09.055Z,3.23
2022-08-05T15:14:48.120Z,3.03
2022-08-05T15:17:46.124Z,4.40
2022-08-05T15:20:18.919Z,1.98
2022-08-05T15:22:52.283Z,2.08
2022-08-05T15:25:23.559Z,4.07
2022-08-05T15:28:09.075Z,2.47
2022-08-05T15:30:41.940Z,9.32
2022-08-05T15:33:10.478Z,3.88
2022-08-05T15:35:44.925Z,2.75
2022-08-05T15:38:35.687Z,2.45
2022-08-05T15:41:21.875Z,2.67
2022-08-05T15:43:47.142Z,2.40
2022-08-05T15:46:14.179Z,2.83
2022-08-05T15:48:52.700Z,1.42
2022-08-05T15:52:12.619Z,4.28
2022-08-05T15:54:17.425Z,3.55
2022-08-05T15:56:44.208Z,4.18
2022-08-05T15:59:20.223Z,3.08
2022-08-05T16:01:53.339Z,5.22
2022-08-05T16:04:25.398Z,4.80
2022-08-05T16:06:53.810Z,1.38
2022-08-05T16:09:22.600Z,2.05
2022-08-05T16:11:52.745Z,3.15
2022-08-05T16:14:20.233Z,1.50
2022-08-05T16:16:47.581Z,3.22
2022-08-05T16:19:18.973Z,2.42
2022-08-05T16:22:03.354Z,2.38
2022-08-05T16:24:40.111Z,1.95
2022-08-05T16:27:09.426Z,1.63
2022-08-05T16:29:37.609Z,1.35
2022-08-05T16:32:06.433Z,0.20
2022-08-05T16:34:33.341Z,0.85
2022-08-05T16:37:00.093Z,0.82
2022-08-05T16:40:06.212Z,1.52
2022-08-05T16:42:18.471Z,0.68
2022-08-05T16:44:57.211Z,0.25
2022-08-05T16:47:28.595Z,1.27
2022-08-05T16:50:05.238Z,2.08
2022-08-05T16:52:33.577Z,1.00
2022-08-05T16:55:00.549Z,1.55
2022-08-05T16:57:39.965Z,4.13
2022-08-05T17:00:34.705Z,3.00
2022-08-05T17:03:02.993Z,0.30
2022-08-05T17:05:31.266Z,1.60
2022-08-05T17:07:58.065Z,1.98
2022-08-05T17:10:26.460Z,4.85
2022-08-05T17:12:58.369Z,2.45
2022-08-05T17:15:47.754Z,4.38
2022-08-05T17:18:14.316Z,0.50
2022-08-05T17:20:42.628Z,0.98
2022-08-05T17:24:03.635Z,2.67
2022-08-05T17:26:25.931Z,2.08
2022-08-05T17:30:18.850Z,1.87
2022-08-05T17:33:23.116Z,3.38
2022-08-05T17:39:41.217Z,0.82
2022-08-05T17:42:51.247Z,0.55
2022-08-05T17:45:38.641Z,1.20
2022-08-05T17:48:12.798Z,2.75
2022-08-05T17:50:53.227Z,1.20
2022-08-05T17:53:50.811Z,1.15
2022-08-05T17:56:23.560Z,3.33
2022-08-05T17:59:32.557Z,1.73
2022-08-05T18:02:17.037Z,0.20
2022-08-05T18:04:51.147Z,2.17
2022-08-05T18:07:20.440Z,1.88
2022-08-05T18:09:58.731Z,0.47
2022-08-05T18:12:27.667Z,3.10
2022-08-05T18:14:55.204Z,2.28
2022-08-05T18:17:58.776Z,3.72
2022-08-05T18:20:14.088Z,3.10
2022-08-05T18:22:46.203Z,0.10
2022-08-05T18:25:22.120Z,4.03
2022-08-05T18:27:52.203Z,0.28
2022-08-05T18:30:19.657Z,2.60
2022-08-05T18:32:53.503Z,1.70
2022-08-05T18:35:49.549Z,0.50
2022-08-05T18:38:16.529Z,1.75
2022-08-05T18:41:57.138Z,0.60
2022-08-05T18:43:37.890Z,0.68
2022-08-05T18:46:10.238Z,1.35
2022-08-05T18:48:41.825Z,1.27
2022-08-05T18:52:03.890Z,2.05
2022-08-05T18:54:14.732Z,1.77
2022-08-05T18:56:41.929Z,1.95
2022-08-05T18:59:42.874Z,7.22
2022-08-05T19:02:11.015Z,0.20
2022-08-05T19:05:01.176Z,2.45
2022-08-05T19:07:25.731Z,0.80
2022-08-05T19:09:56.849Z,3.15
2022-08-05T19:12:23.945Z,5.22
2022-08-05T19:15:00.366Z,1.90
2022-08-05T19:17:33.756Z,1.20
2022-08-05T19:20:17.794Z,1.60
2022-08-05T19:22:44.734Z,1.55
2022-08-05T19:25:21.765Z,2.88
2022-08-05T19:27:57.574Z,3.20
2022-08-05T19:30:24.285Z,0.32
2022-08-05T19:32:51.033Z,2.00
2022-08-05T19:35:17.880Z,1.85
2022-08-05T19:38:06.727Z,0.77
2022-08-05T19:40:35.302Z,4.55
2022-08-05T19:43:05.291Z,4.38
2022-08-05T19:45:36.415Z,2.35
2022-08-05T19:48:05.363Z,3.53
2022-08-05T19:50:32.696Z,2.88
2022-08-05T19:53:10.273Z,0.57
2022-08-05T19:56:14.123Z,4.03
2022-08-05T19:58:28.416Z,3.08
2022-08-05T20:00:56.587Z,1.25
2022-08-05T20:03:25.354Z,8.20
2022-08-05T20:05:56.598Z,1.00
2022-08-05T20:08:24.876Z,3.95
2022-08-05T20:10:52.325Z,2.55
2022-08-05T20:13:29.804Z,2.17
2022-08-05T20:15:57.740Z,2.60
2022-08-05T20:18:33.120Z,2.83
2022-08-05T20:21:02.455Z,2.45
2022-08-05T20:23:40.526Z,1.60
2022-08-05T20:26:18.347Z,1.95
2022-08-05T20:28:48.336Z,1.65
2022-08-05T20:31:16.488Z,1.75
2022-08-05T20:33:45.032Z,0.95
2022-08-05T20:36:14.382Z,4.18
2022-08-05T20:38:53.325Z,3.25
2022-08-05T20:41:26.669Z,6.43
2022-08-05T20:44:00.038Z,3.70
2022-08-05T20:46:29.985Z,5.47
2022-08-05T20:48:56.774Z,1.15
2022-08-05T20:51:23.468Z,1.00
2022-08-05T20:53:56.408Z,4.05
2022-08-05T20:56:29.119Z,2.92
2022-08-05T20:58:59.972Z,7.43
2022-08-05T21:01:39.052Z,3.40
2022-08-05T21:04:09.960Z,1.42
2022-08-05T21:06:38.414Z,3.85
2022-08-05T21:09:16.863Z,4.57
2022-08-05T21:12:08.963Z,4.68
2022-08-05T21:14:34.824Z,1.63
2022-08-05T21:17:05.298Z,8.85
2022-08-05T21:19:46.669Z,7.03
2022-08-05T21:22:23.028Z,1.10
2022-08-05T21:24:57.193Z,5.50
2022-08-05T21:27:24.977Z,2.58
2022-08-05T21:29:55.954Z,2.63
2022-08-05T21:32:27.189Z,2.58
2022-08-05T21:35:08.749Z,2.10
2022-08-05T21:37:42.712Z,3.08
2022-08-05T21:40:14.293Z,3.25
2022-08-05T21:42:45.142Z,5.53
2022-08-05T21:45:25.184Z,3.75
2022-08-05T21:48:01.928Z,2.80
2022-08-05T21:50:33.163Z,1.38
2022-08-05T21:53:04.888Z,1.30
2022-08-05T21:56:01.335Z,1.55
2022-08-05T21:58:31.864Z,1.98
2022-08-05T22:00:59.366Z,3.78
2022-08-05T22:03:52.088Z,4.20
2022-08-05T22:06:13.029Z,2.50
2022-08-05T22:08:42.763Z,2.42
2022-08-05T22:11:12.071Z,1.23
2022-08-05T22:14:34.437Z,5.30
2022-08-05T22:16:41.639Z,1.42
2022-08-05T22:20:00.678Z,2.63
2022-08-05T22:22:03.227Z,1.70
2022-08-05T22:24:52.201Z,2.97
2022-08-05T22:28:09.185Z,4.82
2022-08-05T22:30:34.863Z,2.78
2022-08-05T22:33:02.530Z,2.42
2022-08-05T22:35:31.121Z,2.78
2022-08-05T22:38:15.103Z,1.17
2022-08-05T22:40:42.067Z,2.38
2022-08-05T22:43:16.501Z,4.15
2022-08-05T22:46:12.046Z,3.20
2022-08-05T22:48:41.627Z,2.28
2022-08-05T22:51:08.661Z,3.42
2022-08-05T22:53:42.880Z,3.13
2022-08-05T22:56:17.036Z,6.95
2022-08-05T22:58:43.992Z,4.00
2022-08-05T23:01:10.751Z,5.47
2022-08-05T23:03:59.143Z,2.75
2022-08-05T23:06:26.604Z,2.58
2022-08-05T23:08:55.501Z,2.78
2022-08-05T23:11:42.246Z,3.17
2022-08-05T23:14:13.362Z,2.55
2022-08-05T23:16:58.687Z,1.83
2022-08-05T23:19:26.595Z,2.20
2022-08-05T23:21:53.300Z,3.63
2022-08-05T23:24:21.145Z,2.72
2022-08-05T23:26:49.233Z,1.88
2022-08-05T23:29:16.617Z,3.33
2022-08-05T23:31:46.118Z,2.42
2022-08-05T23:34:16.087Z,3.15
2022-08-05T23:36:51.537Z,1.75
2022-08-05T23:39:23.690Z,1.30
2022-08-05T23:41:59.869Z,2.00
2022-08-05T23:44:27.941Z,2.25
2022-08-05T23:46:59.295Z,2.83
2022-08-05T23:49:33.842Z,5.15
2022-08-05T23:52:21.513Z,4.97
2022-08-05T23:54:53.906Z,4.80
2022-08-05T23:57:21.140Z,6.35
